sensor_id;sensor_type;location;lat;lon;timestamp;P1;durP1;ratioP1;P2;durP2;ratioP2
12482;SDS011;6306;47.134;15.344;2023-04-15T00:00:02;3.87;;;3.57;;
12482;SDS011;6306;47.134;15.344;2023-04-15T00:02:29;6.97;;;3.63;;
12482;SDS011;6306;47.134;15.344;2023-04-15T00:04:55;4.23;;;3.80;;
12482;SDS011;6306;47.134;15.344;2023-04-15T00:07:21;3.00;;;2.80;;
12482;SDS011;6306;47.134;15.344;2023-04-15T00:09:47;4.00;;;3.70;;
12482;SDS011;6306;47.134;15.344;2023-04-15T00:12:13;4.03;;;3.20;;
12482;SDS011;6306;47.134;15.344;2023-04-15T00:14:39;5.30;;;4.20;;
12482;SDS011;6306;47.134;15.344;2023-04-15T00:17:05;5.20;;;4.70;;
12482;SDS011;6306;47.134;15.344;2023-04-15T00:19:31;4.90;;;3.63;;
12482;SDS011;6306;47.134;15.344;2023-04-15T00:21:57;4.70;;;4.20;;
12482;SDS011;6306;47.134;15.344;2023-04-15T00:24:23;4.33;;;3.93;;
12482;SDS011;6306;47.134;15.344;2023-04-15T00:26:49;4.60;;;4.20;;
12482;SDS011;6306;47.134;15.344;2023-04-15T00:29:15;4.07;;;2.83;;
12482;SDS011;6306;47.134;15.344;2023-04-15T00:31:41;4.47;;;4.07;;
12482;SDS011;6306;47.134;15.344;2023-04-15T00:34:07;3.50;;;3.20;;
12482;SDS011;6306;47.134;15.344;2023-04-15T00:36:33;2.97;;;2.77;;
12482;SDS011;6306;47.134;15.344;2023-04-15T00:39:00;3.90;;;3.50;;
12482;SDS011;6306;47.134;15.344;2023-04-15T00:41:27;4.40;;;4.00;;
12482;SDS011;6306;47.134;15.344;2023-04-15T00:43:53;5.30;;;4.20;;
12482;SDS011;6306;47.134;15.344;2023-04-15T00:46:19;4.60;;;4.20;;
12482;SDS011;6306;47.134;15.344;2023-04-15T00:48:46;15.20;;;4.50;;
12482;SDS011;6306;47.134;15.344;2023-04-15T00:51:12;4.77;;;4.37;;
12482;SDS011;6306;47.134;15.344;2023-04-15T00:53:39;4.90;;;4.47;;
12482;SDS011;6306;47.134;15.344;2023-04-15T00:56:05;5.70;;;4.07;;
12482;SDS011;6306;47.134;15.344;2023-04-15T00:58:31;4.93;;;4.40;;
12482;SDS011;6306;47.134;15.344;2023-04-15T01:00:57;4.53;;;3.93;;
12482;SDS011;6306;47.134;15.344;2023-04-15T01:03:23;3.50;;;3.20;;
12482;SDS011;6306;47.134;15.344;2023-04-15T01:05:50;4.50;;;4.10;;
12482;SDS011;6306;47.134;15.344;2023-04-15T01:08:25;3.73;;;3.43;;
12482;SDS011;6306;47.134;15.344;2023-04-15T01:10:51;4.57;;;4.17;;
12482;SDS011;6306;47.134;15.344;2023-04-15T01:13:17;4.03;;;3.73;;
12482;SDS011;6306;47.134;15.344;2023-04-15T01:15:43;5.47;;;4.17;;
12482;SDS011;6306;47.134;15.344;2023-04-15T01:18:10;6.43;;;3.93;;
12482;SDS011;6306;47.134;15.344;2023-04-15T01:20:36;8.07;;;4.67;;
12482;SDS011;6306;47.134;15.344;2023-04-15T01:23:02;3.83;;;3.53;;
12482;SDS011;6306;47.134;15.344;2023-04-15T01:25:31;4.10;;;3.70;;
12482;SDS011;6306;47.134;15.344;2023-04-15T01:27:57;3.30;;;3.00;;
12482;SDS011;6306;47.134;15.344;2023-04-15T01:30:24;5.10;;;3.93;;
12482;SDS011;6306;47.134;15.344;2023-04-15T01:32:51;3.80;;;3.40;;
12482;SDS011;6306;47.134;15.344;2023-04-15T01:35:17;4.77;;;4.37;;
12482;SDS011;6306;47.134;15.344;2023-04-15T01:37:43;5.10;;;4.20;;
12482;SDS011;6306;47.134;15.344;2023-04-15T01:40:10;6.10;;;4.40;;
12482;SDS011;6306;47.134;15.344;2023-04-15T01:42:36;5.10;;;4.57;;
12482;SDS011;6306;47.134;15.344;2023-04-15T01:45:02;3.93;;;3.53;;
12482;SDS011;6306;47.134;15.344;2023-04-15T01:47:28;3.87;;;3.57;;
12482;SDS011;6306;47.134;15.344;2023-04-15T01:49:54;3.90;;;3.13;;
12482;SDS011;6306;47.134;15.344;2023-04-15T01:52:20;3.10;;;2.80;;
12482;SDS011;6306;47.134;15.344;2023-04-15T01:54:47;3.07;;;2.87;;
12482;SDS011;6306;47.134;15.344;2023-04-15T01:57:13;4.57;;;3.23;;
12482;SDS011;6306;47.134;15.344;2023-04-15T01:59:39;3.40;;;3.10;;
12482;SDS011;6306;47.134;15.344;2023-04-15T02:02:06;3.60;;;3.30;;
12482;SDS011;6306;47.134;15.344;2023-04-15T02:04:32;3.90;;;3.47;;
12482;SDS011;6306;47.134;15.344;2023-04-15T02:06:58;3.90;;;3.50;;
12482;SDS011;6306;47.134;15.344;2023-04-15T02:09:24;5.87;;;4.20;;
12482;SDS011;6306;47.134;15.344;2023-04-15T02:11:51;3.97;;;3.67;;
12482;SDS011;6306;47.134;15.344;2023-04-15T02:14:18;3.30;;;3.00;;
12482;SDS011;6306;47.134;15.344;2023-04-15T02:16:44;4.07;;;3.37;;
12482;SDS011;6306;47.134;15.344;2023-04-15T02:19:10;5.50;;;3.57;;
12482;SDS011;6306;47.134;15.344;2023-04-15T02:21:36;3.57;;;3.23;;
12482;SDS011;6306;47.134;15.344;2023-04-15T02:24:02;3.93;;;3.53;;
12482;SDS011;6306;47.134;15.344;2023-04-15T02:26:29;4.27;;;3.80;;
12482;SDS011;6306;47.134;15.344;2023-04-15T02:28:57;4.03;;;3.30;;
12482;SDS011;6306;47.134;15.344;2023-04-15T02:31:23;4.07;;;3.30;;
12482;SDS011;6306;47.134;15.344;2023-04-15T02:33:50;3.37;;;3.00;;
12482;SDS011;6306;47.134;15.344;2023-04-15T02:36:16;3.00;;;2.53;;
12482;SDS011;6306;47.134;15.344;2023-04-15T02:38:42;3.13;;;2.83;;
12482;SDS011;6306;47.134;15.344;2023-04-15T02:41:08;6.00;;;3.30;;
12482;SDS011;6306;47.134;15.344;2023-04-15T02:43:34;3.27;;;2.97;;
12482;SDS011;6306;47.134;15.344;2023-04-15T02:46:00;3.40;;;3.10;;
12482;SDS011;6306;47.134;15.344;2023-04-15T02:48:26;3.50;;;2.53;;
12482;SDS011;6306;47.134;15.344;2023-04-15T02:50:52;4.40;;;4.00;;
12482;SDS011;6306;47.134;15.344;2023-04-15T02:53:18;4.20;;;3.70;;
12482;SDS011;6306;47.134;15.344;2023-04-15T02:55:45;5.00;;;3.97;;
12482;SDS011;6306;47.134;15.344;2023-04-15T02:58:11;6.33;;;3.33;;
12482;SDS011;6306;47.134;15.344;2023-04-15T03:00:36;3.43;;;3.13;;
12482;SDS011;6306;47.134;15.344;2023-04-15T03:03:04;3.77;;;3.20;;
12482;SDS011;6306;47.134;15.344;2023-04-15T03:05:30;3.67;;;3.07;;
12482;SDS011;6306;47.134;15.344;2023-04-15T03:07:56;3.73;;;3.20;;
12482;SDS011;6306;47.134;15.344;2023-04-15T03:10:22;3.07;;;2.77;;
12482;SDS011;6306;47.134;15.344;2023-04-15T03:12:48;3.33;;;3.00;;
12482;SDS011;6306;47.134;15.344;2023-04-15T03:15:14;3.23;;;2.93;;
12482;SDS011;6306;47.134;15.344;2023-04-15T03:17:41;3.43;;;2.90;;
12482;SDS011;6306;47.134;15.344;2023-04-15T03:20:07;3.50;;;3.20;;
12482;SDS011;6306;47.134;15.344;2023-04-15T03:22:34;3.10;;;2.70;;
12482;SDS011;6306;47.134;15.344;2023-04-15T03:25:00;3.10;;;2.80;;
12482;SDS011;6306;47.134;15.344;2023-04-15T03:27:26;5.30;;;3.47;;
12482;SDS011;6306;47.134;15.344;2023-04-15T03:29:52;3.70;;;3.40;;
12482;SDS011;6306;47.134;15.344;2023-04-15T03:32:18;3.40;;;3.00;;
12482;SDS011;6306;47.134;15.344;2023-04-15T03:34:44;3.90;;;3.50;;
12482;SDS011;6306;47.134;15.344;2023-04-15T03:37:11;3.40;;;3.10;;
12482;SDS011;6306;47.134;15.344;2023-04-15T03:39:37;4.53;;;3.30;;
12482;SDS011;6306;47.134;15.344;2023-04-15T03:42:03;2.90;;;2.70;;
12482;SDS011;6306;47.134;15.344;2023-04-15T03:44:29;4.07;;;2.83;;
12482;SDS011;6306;47.134;15.344;2023-04-15T03:46:56;4.47;;;2.80;;
12482;SDS011;6306;47.134;15.344;2023-04-15T03:49:22;2.57;;;2.27;;
12482;SDS011;6306;47.134;15.344;2023-04-15T03:51:48;2.07;;;1.87;;
12482;SDS011;6306;47.134;15.344;2023-04-15T03:54:14;3.50;;;2.17;;
12482;SDS011;6306;47.134;15.344;2023-04-15T03:56:40;2.20;;;2.10;;
12482;SDS011;6306;47.134;15.344;2023-04-15T03:59:06;3.50;;;2.40;;
12482;SDS011;6306;47.134;15.344;2023-04-15T04:01:32;2.63;;;1.90;;
12482;SDS011;6306;47.134;15.344;2023-04-15T04:03:58;1.70;;;1.60;;
12482;SDS011;6306;47.134;15.344;2023-04-15T04:06:25;2.20;;;1.87;;
12482;SDS011;6306;47.134;15.344;2023-04-15T04:08:51;3.20;;;2.17;;
12482;SDS011;6306;47.134;15.344;2023-04-15T04:11:17;1.53;;;1.43;;
12482;SDS011;6306;47.134;15.344;2023-04-15T04:13:43;2.10;;;1.93;;
12482;SDS011;6306;47.134;15.344;2023-04-15T04:16:09;2.77;;;2.57;;
12482;SDS011;6306;47.134;15.344;2023-04-15T04:18:35;3.30;;;1.80;;
12482;SDS011;6306;47.134;15.344;2023-04-15T04:21:01;3.53;;;2.00;;
12482;SDS011;6306;47.134;15.344;2023-04-15T04:23:27;2.60;;;2.40;;
12482;SDS011;6306;47.134;15.344;2023-04-15T04:25:53;4.90;;;2.00;;
12482;SDS011;6306;47.134;15.344;2023-04-15T04:28:19;4.27;;;2.13;;
12482;SDS011;6306;47.134;15.344;2023-04-15T04:30:45;1.67;;;1.57;;
12482;SDS011;6306;47.134;15.344;2023-04-15T04:33:11;1.83;;;1.73;;
12482;SDS011;6306;47.134;15.344;2023-04-15T04:35:37;3.40;;;2.23;;
12482;SDS011;6306;47.134;15.344;2023-04-15T04:38:03;3.63;;;1.80;;
12482;SDS011;6306;47.134;15.344;2023-04-15T04:40:29;1.80;;;1.70;;
12482;SDS011;6306;47.134;15.344;2023-04-15T04:42:56;3.00;;;1.83;;
12482;SDS011;6306;47.134;15.344;2023-04-15T04:45:22;2.00;;;1.80;;
12482;SDS011;6306;47.134;15.344;2023-04-15T04:47:48;4.10;;;1.77;;
12482;SDS011;6306;47.134;15.344;2023-04-15T04:50:14;2.70;;;1.90;;
12482;SDS011;6306;47.134;15.344;2023-04-15T04:52:40;2.50;;;2.30;;
12482;SDS011;6306;47.134;15.344;2023-04-15T04:55:06;2.20;;;1.80;;
12482;SDS011;6306;47.134;15.344;2023-04-15T04:57:32;1.47;;;1.33;;
12482;SDS011;6306;47.134;15.344;2023-04-15T05:00:03;2.53;;;2.33;;
12482;SDS011;6306;47.134;15.344;2023-04-15T05:02:29;3.10;;;2.80;;
12482;SDS011;6306;47.134;15.344;2023-04-15T05:04:56;3.23;;;2.60;;
12482;SDS011;6306;47.134;15.344;2023-04-15T05:07:22;3.20;;;2.40;;
12482;SDS011;6306;47.134;15.344;2023-04-15T05:09:48;4.00;;;2.73;;
12482;SDS011;6306;47.134;15.344;2023-04-15T05:12:14;3.70;;;3.40;;
12482;SDS011;6306;47.134;15.344;2023-04-15T05:14:40;3.40;;;3.10;;
12482;SDS011;6306;47.134;15.344;2023-04-15T05:17:07;4.53;;;3.23;;
12482;SDS011;6306;47.134;15.344;2023-04-15T05:19:33;3.00;;;2.80;;
12482;SDS011;6306;47.134;15.344;2023-04-15T05:21:59;4.50;;;4.10;;
12482;SDS011;6306;47.134;15.344;2023-04-15T05:24:25;4.20;;;3.67;;
12482;SDS011;6306;47.134;15.344;2023-04-15T05:26:51;4.87;;;3.87;;
12482;SDS011;6306;47.134;15.344;2023-04-15T05:29:17;4.70;;;4.30;;
12482;SDS011;6306;47.134;15.344;2023-04-15T05:31:43;3.90;;;3.50;;
12482;SDS011;6306;47.134;15.344;2023-04-15T05:34:09;6.10;;;3.07;;
12482;SDS011;6306;47.134;15.344;2023-04-15T05:36:36;3.37;;;2.90;;
12482;SDS011;6306;47.134;15.344;2023-04-15T05:39:02;4.53;;;3.00;;
12482;SDS011;6306;47.134;15.344;2023-04-15T05:41:28;4.60;;;3.23;;
12482;SDS011;6306;47.134;15.344;2023-04-15T05:43:54;3.30;;;3.00;;
12482;SDS011;6306;47.134;15.344;2023-04-15T05:46:20;2.23;;;2.00;;
12482;SDS011;6306;47.134;15.344;2023-04-15T05:48:46;3.30;;;2.40;;
12482;SDS011;6306;47.134;15.344;2023-04-15T05:51:12;4.07;;;2.67;;
12482;SDS011;6306;47.134;15.344;2023-04-15T05:53:38;2.30;;;2.10;;
12482;SDS011;6306;47.134;15.344;2023-04-15T05:56:05;2.20;;;2.00;;
12482;SDS011;6306;47.134;15.344;2023-04-15T05:58:31;3.23;;;2.53;;
12482;SDS011;6306;47.134;15.344;2023-04-15T06:00:57;3.83;;;3.00;;
12482;SDS011;6306;47.134;15.344;2023-04-15T06:03:24;2.60;;;2.40;;
12482;SDS011;6306;47.134;15.344;2023-04-15T06:05:50;3.10;;;2.83;;
12482;SDS011;6306;47.134;15.344;2023-04-15T06:08:16;3.63;;;2.93;;
12482;SDS011;6306;47.134;15.344;2023-04-15T06:10:43;6.67;;;3.20;;
12482;SDS011;6306;47.134;15.344;2023-04-15T06:13:10;5.30;;;4.07;;
12482;SDS011;6306;47.134;15.344;2023-04-15T06:15:36;4.00;;;3.37;;
12482;SDS011;6306;47.134;15.344;2023-04-15T06:18:02;4.63;;;4.10;;
12482;SDS011;6306;47.134;15.344;2023-04-15T06:20:29;5.20;;;3.30;;
12482;SDS011;6306;47.134;15.344;2023-04-15T06:22:55;4.17;;;3.50;;
12482;SDS011;6306;47.134;15.344;2023-04-15T06:25:21;6.47;;;3.73;;
12482;SDS011;6306;47.134;15.344;2023-04-15T06:27:48;3.60;;;3.07;;
12482;SDS011;6306;47.134;15.344;2023-04-15T06:30:14;5.13;;;3.90;;
12482;SDS011;6306;47.134;15.344;2023-04-15T06:32:40;4.00;;;3.47;;
12482;SDS011;6306;47.134;15.344;2023-04-15T06:35:06;3.97;;;3.43;;
12482;SDS011;6306;47.134;15.344;2023-04-15T06:37:32;4.30;;;3.33;;
12482;SDS011;6306;47.134;15.344;2023-04-15T06:39:58;3.43;;;3.10;;
12482;SDS011;6306;47.134;15.344;2023-04-15T06:42:24;3.90;;;3.60;;
12482;SDS011;6306;47.134;15.344;2023-04-15T06:44:50;5.30;;;3.20;;
12482;SDS011;6306;47.134;15.344;2023-04-15T06:47:16;5.43;;;3.60;;
12482;SDS011;6306;47.134;15.344;2023-04-15T06:49:43;3.53;;;3.23;;
12482;SDS011;6306;47.134;15.344;2023-04-15T06:52:09;5.23;;;3.40;;
12482;SDS011;6306;47.134;15.344;2023-04-15T06:54:36;4.10;;;2.97;;
12482;SDS011;6306;47.134;15.344;2023-04-15T06:57:02;4.83;;;3.53;;
12482;SDS011;6306;47.134;15.344;2023-04-15T06:59:28;4.80;;;3.70;;
12482;SDS011;6306;47.134;15.344;2023-04-15T07:01:54;7.40;;;4.53;;
12482;SDS011;6306;47.134;15.344;2023-04-15T07:04:20;4.77;;;3.63;;
12482;SDS011;6306;47.134;15.344;2023-04-15T07:06:46;4.77;;;4.27;;
12482;SDS011;6306;47.134;15.344;2023-04-15T07:09:12;4.77;;;3.43;;
12482;SDS011;6306;47.134;15.344;2023-04-15T07:11:39;5.33;;;4.33;;
12482;SDS011;6306;47.134;15.344;2023-04-15T07:14:05;6.47;;;4.20;;
12482;SDS011;6306;47.134;15.344;2023-04-15T07:16:31;4.40;;;4.00;;
12482;SDS011;6306;47.134;15.344;2023-04-15T07:18:57;4.60;;;3.90;;
12482;SDS011;6306;47.134;15.344;2023-04-15T07:21:24;4.37;;;3.97;;
12482;SDS011;6306;47.134;15.344;2023-04-15T07:23:51;5.00;;;4.53;;
12482;SDS011;6306;47.134;15.344;2023-04-15T07:26:17;4.87;;;4.33;;
12482;SDS011;6306;47.134;15.344;2023-04-15T07:28:43;5.60;;;4.70;;
12482;SDS011;6306;47.134;15.344;2023-04-15T07:31:11;5.30;;;4.50;;
12482;SDS011;6306;47.134;15.344;2023-04-15T07:33:37;4.97;;;4.07;;
12482;SDS011;6306;47.134;15.344;2023-04-15T07:36:03;9.00;;;4.57;;
12482;SDS011;6306;47.134;15.344;2023-04-15T07:38:29;16.00;;;6.17;;
12482;SDS011;6306;47.134;15.344;2023-04-15T07:40:55;7.57;;;5.80;;
12482;SDS011;6306;47.134;15.344;2023-04-15T07:43:21;7.63;;;5.23;;
12482;SDS011;6306;47.134;15.344;2023-04-15T07:45:47;5.30;;;4.67;;
12482;SDS011;6306;47.134;15.344;2023-04-15T07:48:13;7.83;;;5.07;;
12482;SDS011;6306;47.134;15.344;2023-04-15T07:50:39;4.20;;;3.80;;
12482;SDS011;6306;47.134;15.344;2023-04-15T07:53:05;4.93;;;4.33;;
12482;SDS011;6306;47.134;15.344;2023-04-15T07:55:31;3.70;;;3.40;;
12482;SDS011;6306;47.134;15.344;2023-04-15T07:57:57;4.03;;;3.63;;
12482;SDS011;6306;47.134;15.344;2023-04-15T08:00:23;5.90;;;3.60;;
12482;SDS011;6306;47.134;15.344;2023-04-15T08:02:50;3.80;;;3.50;;
12482;SDS011;6306;47.134;15.344;2023-04-15T08:05:17;4.67;;;3.70;;
12482;SDS011;6306;47.134;15.344;2023-04-15T08:07:43;3.57;;;3.27;;
12482;SDS011;6306;47.134;15.344;2023-04-15T08:10:10;3.47;;;2.80;;
12482;SDS011;6306;47.134;15.344;2023-04-15T08:12:36;6.33;;;2.43;;
12482;SDS011;6306;47.134;15.344;2023-04-15T08:15:02;3.20;;;2.30;;
12482;SDS011;6306;47.134;15.344;2023-04-15T08:17:29;2.70;;;2.20;;
12482;SDS011;6306;47.134;15.344;2023-04-15T08:19:55;2.60;;;2.40;;
12482;SDS011;6306;47.134;15.344;2023-04-15T08:22:21;2.63;;;2.33;;
12482;SDS011;6306;47.134;15.344;2023-04-15T08:24:47;3.03;;;2.10;;
12482;SDS011;6306;47.134;15.344;2023-04-15T08:27:13;2.67;;;2.20;;
12482;SDS011;6306;47.134;15.344;2023-04-15T08:29:39;2.50;;;2.30;;
12482;SDS011;6306;47.134;15.344;2023-04-15T08:32:05;3.37;;;2.10;;
12482;SDS011;6306;47.134;15.344;2023-04-15T08:34:31;2.10;;;2.00;;
12482;SDS011;6306;47.134;15.344;2023-04-15T08:36:58;2.63;;;2.37;;
12482;SDS011;6306;47.134;15.344;2023-04-15T08:39:24;2.07;;;1.87;;
12482;SDS011;6306;47.134;15.344;2023-04-15T08:41:55;1.40;;;1.30;;
12482;SDS011;6306;47.134;15.344;2023-04-15T08:44:22;1.40;;;1.10;;
12482;SDS011;6306;47.134;15.344;2023-04-15T08:46:50;1.80;;;1.63;;
12482;SDS011;6306;47.134;15.344;2023-04-15T08:49:16;1.90;;;1.80;;
12482;SDS011;6306;47.134;15.344;2023-04-15T08:51:42;1.50;;;1.40;;
12482;SDS011;6306;47.134;15.344;2023-04-15T08:54:09;2.73;;;1.57;;
12482;SDS011;6306;47.134;15.344;2023-04-15T08:56:35;2.53;;;1.30;;
12482;SDS011;6306;47.134;15.344;2023-04-15T08:59:01;1.80;;;1.70;;
12482;SDS011;6306;47.134;15.344;2023-04-15T09:01:28;2.33;;;2.13;;
12482;SDS011;6306;47.134;15.344;2023-04-15T09:03:55;3.07;;;2.57;;
12482;SDS011;6306;47.134;15.344;2023-04-15T09:06:21;2.93;;;2.63;;
12482;SDS011;6306;47.134;15.344;2023-04-15T09:08:48;2.23;;;2.07;;
12482;SDS011;6306;47.134;15.344;2023-04-15T09:11:14;3.03;;;1.80;;
12482;SDS011;6306;47.134;15.344;2023-04-15T09:13:42;1.87;;;1.77;;
12482;SDS011;6306;47.134;15.344;2023-04-15T09:16:08;3.20;;;2.20;;
12482;SDS011;6306;47.134;15.344;2023-04-15T09:18:34;2.03;;;1.83;;
12482;SDS011;6306;47.134;15.344;2023-04-15T09:21:04;2.00;;;1.90;;
12482;SDS011;6306;47.134;15.344;2023-04-15T09:23:32;2.47;;;1.50;;
12482;SDS011;6306;47.134;15.344;2023-04-15T09:25:59;2.27;;;1.97;;
12482;SDS011;6306;47.134;15.344;2023-04-15T09:28:27;2.50;;;2.30;;
12482;SDS011;6306;47.134;15.344;2023-04-15T09:30:59;1.60;;;1.40;;
12482;SDS011;6306;47.134;15.344;2023-04-15T09:33:27;2.50;;;2.30;;
12482;SDS011;6306;47.134;15.344;2023-04-15T09:38:23;1.93;;;1.83;;
12482;SDS011;6306;47.134;15.344;2023-04-15T09:40:49;1.90;;;1.80;;
12482;SDS011;6306;47.134;15.344;2023-04-15T09:43:15;6.13;;;2.23;;
12482;SDS011;6306;47.134;15.344;2023-04-15T09:45:48;2.07;;;1.93;;
12482;SDS011;6306;47.134;15.344;2023-04-15T09:50:41;1.80;;;1.57;;
12482;SDS011;6306;47.134;15.344;2023-04-15T09:53:08;2.90;;;2.43;;
12482;SDS011;6306;47.134;15.344;2023-04-15T09:55:35;2.57;;;2.30;;
12482;SDS011;6306;47.134;15.344;2023-04-15T09:58:02;2.30;;;1.63;;
12482;SDS011;6306;47.134;15.344;2023-04-15T10:00:33;1.73;;;1.63;;
12482;SDS011;6306;47.134;15.344;2023-04-15T10:02:59;2.77;;;2.00;;
12482;SDS011;6306;47.134;15.344;2023-04-15T10:05:26;2.00;;;1.80;;
12482;SDS011;6306;47.134;15.344;2023-04-15T10:07:52;2.47;;;1.90;;
12482;SDS011;6306;47.134;15.344;2023-04-15T10:10:18;3.23;;;1.77;;
12482;SDS011;6306;47.134;15.344;2023-04-15T10:12:44;2.30;;;2.10;;
12482;SDS011;6306;47.134;15.344;2023-04-15T10:15:13;1.93;;;1.50;;
12482;SDS011;6306;47.134;15.344;2023-04-15T10:17:42;2.10;;;1.90;;
12482;SDS011;6306;47.134;15.344;2023-04-15T10:20:08;1.87;;;1.70;;
12482;SDS011;6306;47.134;15.344;2023-04-15T10:22:36;2.70;;;2.50;;
12482;SDS011;6306;47.134;15.344;2023-04-15T10:25:03;2.10;;;1.63;;
12482;SDS011;6306;47.134;15.344;2023-04-15T10:27:31;2.57;;;1.93;;
12482;SDS011;6306;47.134;15.344;2023-04-15T10:29:59;2.70;;;2.30;;
12482;SDS011;6306;47.134;15.344;2023-04-15T10:32:27;3.93;;;3.20;;
12482;SDS011;6306;47.134;15.344;2023-04-15T10:34:54;3.97;;;2.43;;
12482;SDS011;6306;47.134;15.344;2023-04-15T10:37:21;2.23;;;1.80;;
12482;SDS011;6306;47.134;15.344;2023-04-15T10:39:48;2.30;;;2.10;;
12482;SDS011;6306;47.134;15.344;2023-04-15T10:42:15;2.53;;;2.17;;
12482;SDS011;6306;47.134;15.344;2023-04-15T10:44:48;1.80;;;1.70;;
12482;SDS011;6306;47.134;15.344;2023-04-15T10:47:18;2.93;;;1.73;;
12482;SDS011;6306;47.134;15.344;2023-04-15T10:49:46;4.57;;;2.97;;
12482;SDS011;6306;47.134;15.344;2023-04-15T10:52:13;3.80;;;1.80;;
12482;SDS011;6306;47.134;15.344;2023-04-15T10:54:39;5.00;;;2.23;;
12482;SDS011;6306;47.134;15.344;2023-04-15T10:57:06;2.07;;;1.93;;
12482;SDS011;6306;47.134;15.344;2023-04-15T10:59:35;2.10;;;1.90;;
12482;SDS011;6306;47.134;15.344;2023-04-15T11:02:02;2.20;;;2.00;;
12482;SDS011;6306;47.134;15.344;2023-04-15T11:07:13;3.20;;;2.90;;
12482;SDS011;6306;47.134;15.344;2023-04-15T11:09:39;3.33;;;2.67;;
12482;SDS011;6306;47.134;15.344;2023-04-15T11:12:05;3.07;;;2.87;;
12482;SDS011;6306;47.134;15.344;2023-04-15T11:14:32;1.80;;;1.70;;
12482;SDS011;6306;47.134;15.344;2023-04-15T11:17:01;1.63;;;1.53;;
12482;SDS011;6306;47.134;15.344;2023-04-15T11:19:34;2.30;;;2.10;;
12482;SDS011;6306;47.134;15.344;2023-04-15T11:22:07;2.00;;;1.70;;
12482;SDS011;6306;47.134;15.344;2023-04-15T11:24:33;1.80;;;1.60;;
12482;SDS011;6306;47.134;15.344;2023-04-15T11:27:00;2.13;;;2.03;;
12482;SDS011;6306;47.134;15.344;2023-04-15T11:29:30;2.03;;;1.60;;
12482;SDS011;6306;47.134;15.344;2023-04-15T11:32:05;2.07;;;1.63;;
12482;SDS011;6306;47.134;15.344;2023-04-15T11:34:32;1.73;;;1.63;;
12482;SDS011;6306;47.134;15.344;2023-04-15T11:36:59;2.70;;;1.80;;
12482;SDS011;6306;47.134;15.344;2023-04-15T11:39:25;1.83;;;1.73;;
12482;SDS011;6306;47.134;15.344;2023-04-15T11:41:53;1.70;;;1.60;;
12482;SDS011;6306;47.134;15.344;2023-04-15T11:44:20;2.57;;;2.37;;
12482;SDS011;6306;47.134;15.344;2023-04-15T11:46:46;2.20;;;2.00;;
12482;SDS011;6306;47.134;15.344;2023-04-15T11:49:24;2.87;;;2.60;;
12482;SDS011;6306;47.134;15.344;2023-04-15T11:51:50;3.30;;;2.57;;
12482;SDS011;6306;47.134;15.344;2023-04-15T11:54:19;3.27;;;2.83;;
12482;SDS011;6306;47.134;15.344;2023-04-15T11:56:49;2.50;;;1.83;;
12482;SDS011;6306;47.134;15.344;2023-04-15T11:59:15;2.37;;;2.17;;
12482;SDS011;6306;47.134;15.344;2023-04-15T12:01:41;2.87;;;2.00;;
12482;SDS011;6306;47.134;15.344;2023-04-15T12:04:13;2.80;;;2.47;;
12482;SDS011;6306;47.134;15.344;2023-04-15T12:06:41;2.33;;;1.67;;
12482;SDS011;6306;47.134;15.344;2023-04-15T12:09:13;1.90;;;1.80;;
12482;SDS011;6306;47.134;15.344;2023-04-15T12:14:07;2.30;;;1.80;;
12482;SDS011;6306;47.134;15.344;2023-04-15T12:16:34;1.97;;;1.87;;
12482;SDS011;6306;47.134;15.344;2023-04-15T12:19:03;2.30;;;2.10;;
12482;SDS011;6306;47.134;15.344;2023-04-15T12:21:32;2.63;;;1.70;;
12482;SDS011;6306;47.134;15.344;2023-04-15T12:24:00;1.57;;;1.47;;
12482;SDS011;6306;47.134;15.344;2023-04-15T12:26:27;1.53;;;1.40;;
12482;SDS011;6306;47.134;15.344;2023-04-15T12:29:15;1.47;;;1.37;;
12482;SDS011;6306;47.134;15.344;2023-04-15T12:31:47;2.97;;;2.00;;
12482;SDS011;6306;47.134;15.344;2023-04-15T12:34:14;1.53;;;1.20;;
12482;SDS011;6306;47.134;15.344;2023-04-15T12:36:41;1.27;;;1.17;;
12482;SDS011;6306;47.134;15.344;2023-04-15T12:39:07;2.77;;;1.93;;
12482;SDS011;6306;47.134;15.344;2023-04-15T12:41:33;2.40;;;1.87;;
12482;SDS011;6306;47.134;15.344;2023-04-15T12:43:59;2.23;;;2.03;;
12482;SDS011;6306;47.134;15.344;2023-04-15T12:46:26;3.10;;;1.80;;
12482;SDS011;6306;47.134;15.344;2023-04-15T12:48:52;6.90;;;2.10;;
12482;SDS011;6306;47.134;15.344;2023-04-15T12:51:19;2.47;;;2.13;;
12482;SDS011;6306;47.134;15.344;2023-04-15T12:53:48;2.00;;;1.87;;
12482;SDS011;6306;47.134;15.344;2023-04-15T12:56:14;2.30;;;1.77;;
12482;SDS011;6306;47.134;15.344;2023-04-15T12:58:41;2.60;;;2.03;;
12482;SDS011;6306;47.134;15.344;2023-04-15T13:01:07;2.43;;;2.20;;
12482;SDS011;6306;47.134;15.344;2023-04-15T13:03:34;2.37;;;1.93;;
12482;SDS011;6306;47.134;15.344;2023-04-15T13:06:00;2.30;;;2.10;;
12482;SDS011;6306;47.134;15.344;2023-04-15T13:08:28;2.90;;;1.53;;
12482;SDS011;6306;47.134;15.344;2023-04-15T13:10:54;4.00;;;1.97;;
12482;SDS011;6306;47.134;15.344;2023-04-15T13:13:20;1.80;;;1.70;;
12482;SDS011;6306;47.134;15.344;2023-04-15T13:15:46;2.27;;;1.70;;
12482;SDS011;6306;47.134;15.344;2023-04-15T13:18:12;2.30;;;2.10;;
12482;SDS011;6306;47.134;15.344;2023-04-15T13:20:38;1.63;;;1.37;;
12482;SDS011;6306;47.134;15.344;2023-04-15T13:23:05;2.37;;;2.17;;
12482;SDS011;6306;47.134;15.344;2023-04-15T13:25:31;2.13;;;1.93;;
12482;SDS011;6306;47.134;15.344;2023-04-15T13:27:57;1.50;;;1.40;;
12482;SDS011;6306;47.134;15.344;2023-04-15T13:30:25;1.30;;;1.20;;
12482;SDS011;6306;47.134;15.344;2023-04-15T13:32:51;2.20;;;2.03;;
12482;SDS011;6306;47.134;15.344;2023-04-15T13:35:18;1.13;;;1.03;;
12482;SDS011;6306;47.134;15.344;2023-04-15T13:37:44;1.20;;;1.00;;
12482;SDS011;6306;47.134;15.344;2023-04-15T13:40:10;1.03;;;0.97;;
12482;SDS011;6306;47.134;15.344;2023-04-15T13:42:37;1.07;;;1.00;;
12482;SDS011;6306;47.134;15.344;2023-04-15T13:45:03;1.33;;;1.27;;
12482;SDS011;6306;47.134;15.344;2023-04-15T13:47:29;0.90;;;0.90;;
12482;SDS011;6306;47.134;15.344;2023-04-15T13:49:55;1.27;;;1.17;;
12482;SDS011;6306;47.134;15.344;2023-04-15T13:52:21;1.97;;;1.37;;
12482;SDS011;6306;47.134;15.344;2023-04-15T13:54:48;1.75;;;1.20;;
12482;SDS011;6306;47.134;15.344;2023-04-15T13:57:14;2.40;;;1.60;;
12482;SDS011;6306;47.134;15.344;2023-04-15T13:59:40;1.03;;;0.97;;
12482;SDS011;6306;47.134;15.344;2023-04-15T14:02:07;1.10;;;1.00;;
12482;SDS011;6306;47.134;15.344;2023-04-15T14:04:34;1.13;;;0.93;;
12482;SDS011;6306;47.134;15.344;2023-04-15T14:07:00;1.07;;;0.70;;
12482;SDS011;6306;47.134;15.344;2023-04-15T14:09:26;1.50;;;1.40;;
12482;SDS011;6306;47.134;15.344;2023-04-15T14:11:52;0.90;;;0.90;;
12482;SDS011;6306;47.134;15.344;2023-04-15T14:14:18;2.03;;;1.30;;
12482;SDS011;6306;47.134;15.344;2023-04-15T14:16:44;4.80;;;1.00;;
12482;SDS011;6306;47.134;15.344;2023-04-15T14:19:11;1.60;;;1.50;;
12482;SDS011;6306;47.134;15.344;2023-04-15T14:21:37;1.23;;;1.13;;
12482;SDS011;6306;47.134;15.344;2023-04-15T14:24:03;1.50;;;1.10;;
12482;SDS011;6306;47.134;15.344;2023-04-15T14:26:30;1.47;;;1.37;;
12482;SDS011;6306;47.134;15.344;2023-04-15T14:28:56;2.13;;;1.80;;
12482;SDS011;6306;47.134;15.344;2023-04-15T14:31:22;1.57;;;1.40;;
12482;SDS011;6306;47.134;15.344;2023-04-15T14:33:48;1.80;;;1.67;;
12482;SDS011;6306;47.134;15.344;2023-04-15T14:36:14;1.87;;;1.70;;
12482;SDS011;6306;47.134;15.344;2023-04-15T14:38:40;1.60;;;1.50;;
12482;SDS011;6306;47.134;15.344;2023-04-15T14:41:06;3.90;;;1.50;;
12482;SDS011;6306;47.134;15.344;2023-04-15T14:43:33;2.30;;;1.77;;
12482;SDS011;6306;47.134;15.344;2023-04-15T14:45:59;1.90;;;1.40;;
12482;SDS011;6306;47.134;15.344;2023-04-15T14:48:25;2.13;;;1.60;;
12482;SDS011;6306;47.134;15.344;2023-04-15T14:50:51;3.73;;;2.10;;
12482;SDS011;6306;47.134;15.344;2023-04-15T14:53:17;2.20;;;1.70;;